Time;durP1;ratioP1;P1;durP2;ratioP2;P2;SDS_P1;SDS_P2;PMS_P1;PMS_P2;Temp;Humidity;BMP_temperature;BMP_pressure;BME280_temperature;BME280_humidity;BME280_pressure;Samples;Min_cycle;Max_cycle;Signal;HPM_P1;HPM_P2
2022/03/09 00:01:37;;;;;;;26.88;16.02;;;3.80;99.90;;;;;;5038989;28;20036;-80
2022/03/09 00:04:03;;;;;;;22.17;14.18;;;3.70;99.90;;;;;;5033814;28;20079;-81
2022/03/09 00:06:29;;;;;;;21.08;15.25;;;3.70;99.90;;;;;;5039590;28;20036;-83
2022/03/09 00:08:55;;;;;;;22.35;15.20;;;3.70;99.90;;;;;;5041658;28;20025;-84
2022/03/09 00:11:20;;;;;;;23.90;14.38;;;3.70;99.90;;;;;;5035080;28;20548;-82
2022/03/09 00:13:46;;;;;;;21.13;13.75;;;3.70;99.90;;;;;;5027277;28;20050;-83
2022/03/09 00:16:12;;;;;;;23.13;14.52;;;3.70;99.90;;;;;;5032693;28;20037;-84
2022/03/09 00:18:37;;;;;;;25.85;14.90;;;3.70;99.90;;;;;;5038906;28;20040;-80
2022/03/09 00:21:03;;;;;;;23.92;14.68;;;3.80;99.90;;;;;;5036009;28;20024;-83
2022/03/09 00:23:29;;;;;;;20.98;12.98;;;3.70;99.90;;;;;;5029966;28;20037;-84
2022/03/09 00:25:55;;;;;;;23.60;14.95;;;3.70;99.90;;;;;;5031398;28;20462;-83
2022/03/09 00:28:20;;;;;;;26.52;14.93;;;3.70;99.90;;;;;;5034619;28;20041;-83
2022/03/09 00:30:46;;;;;;;20.20;13.70;;;3.80;99.90;;;;;;5045187;28;20026;-83
2022/03/09 00:33:11;;;;;;;22.00;13.65;;;3.70;99.90;;;;;;5033979;28;20038;-83
2022/03/09 00:35:38;;;;;;;19.92;12.70;;;3.70;99.90;;;;;;5036455;28;20021;-83
2022/03/09 00:38:05;;;;;;;26.08;14.50;;;3.60;99.90;;;;;;5040421;28;20034;-83
2022/03/09 00:40:30;;;;;;;27.45;14.60;;;3.60;99.90;;;;;;5039840;28;20030;-83
2022/03/09 00:42:57;;;;;;;26.50;14.93;;;3.70;99.90;;;;;;5032071;28;20022;-82
2022/03/09 00:45:22;;;;;;;24.55;14.23;;;3.70;99.90;;;;;;5044795;28;20035;-83
2022/03/09 00:47:48;;;;;;;23.38;15.27;;;3.60;99.90;;;;;;5037839;28;20021;-83
2022/03/09 00:50:14;;;;;;;23.50;14.95;;;3.60;99.90;;;;;;5029034;28;20108;-83
2022/03/09 00:52:39;;;;;;;20.75;14.00;;;3.60;99.90;;;;;;5034188;28;20033;-83
2022/03/09 00:55:07;;;;;;;22.65;13.55;;;3.60;99.90;;;;;;5052045;28;20025;-83
2022/03/09 00:57:32;;;;;;;21.63;14.27;;;3.60;99.90;;;;;;5038453;28;20489;-83
2022/03/09 00:59:58;;;;;;;23.10;14.05;;;3.60;99.90;;;;;;5044284;28;20029;-82
2022/03/09 01:02:24;;;;;;;24.17;14.35;;;3.60;99.90;;;;;;5040675;28;20030;-82
2022/03/09 01:04:49;;;;;;;22.17;13.05;;;3.50;99.90;;;;;;5033193;28;20032;-83
2022/03/09 01:07:15;;;;;;;23.80;14.93;;;3.50;99.90;;;;;;5039622;28;20029;-82
2022/03/09 01:09:41;;;;;;;25.92;13.88;;;3.40;99.90;;;;;;5040394;28;20041;-82
2022/03/09 01:12:07;;;;;;;21.00;13.98;;;3.40;99.90;;;;;;5040457;28;20021;-83
2022/03/09 01:14:32;;;;;;;24.17;14.00;;;3.40;99.90;;;;;;5048823;28;20051;-83
2022/03/09 01:16:58;;;;;;;20.27;12.95;;;3.40;99.90;;;;;;5023230;28;20473;-82
2022/03/09 01:19:24;;;;;;;20.77;12.98;;;3.40;99.90;;;;;;5031038;28;20052;-82
2022/03/09 01:21:49;;;;;;;20.48;12.95;;;3.40;99.90;;;;;;5037990;28;20072;-83
2022/03/09 01:24:15;;;;;;;23.88;12.77;;;3.40;99.90;;;;;;5034497;28;20037;-82
2022/03/09 01:26:42;;;;;;;23.85;13.57;;;3.30;99.90;;;;;;5044331;28;20082;-83
2022/03/09 01:29:09;;;;;;;21.02;14.38;;;3.30;99.90;;;;;;5040732;28;20029;-83
2022/03/09 01:31:35;;;;;;;19.60;12.27;;;3.30;99.90;;;;;;5047799;28;20036;-82
2022/03/09 01:34:00;;;;;;;23.23;12.48;;;3.40;99.90;;;;;;5033060;28;20033;-82
2022/03/09 01:36:26;;;;;;;23.85;14.27;;;3.30;99.90;;;;;;5031664;28;20461;-82
2022/03/09 01:38:51;;;;;;;20.60;13.52;;;3.30;99.90;;;;;;5038096;28;20042;-83
2022/03/09 01:41:17;;;;;;;20.08;13.75;;;3.30;99.90;;;;;;5033604;28;20028;-82
2022/03/09 01:43:43;;;;;;;24.05;15.20;;;3.30;99.90;;;;;;5026091;28;20022;-83
2022/03/09 01:46:09;;;;;;;22.23;14.20;;;3.30;99.90;;;;;;5023617;28;20063;-83
2022/03/09 01:48:34;;;;;;;20.77;13.70;;;3.20;99.90;;;;;;5025716;28;20033;-83
2022/03/09 01:51:00;;;;;;;24.30;14.45;;;3.30;99.90;;;;;;5038585;28;20029;-82
2022/03/09 01:53:26;;;;;;;20.95;13.90;;;3.30;99.90;;;;;;5032047;28;20021;-82
2022/03/09 01:55:51;;;;;;;24.60;15.07;;;3.20;99.90;;;;;;5041551;28;20082;-82
2022/03/09 01:58:17;;;;;;;23.85;14.77;;;3.20;99.90;;;;;;5030445;28;20475;-83
2022/03/09 02:00:43;;;;;;;25.50;14.10;;;3.30;99.90;;;;;;5041163;28;20385;-83
2022/03/09 02:03:08;;;;;;;23.13;13.27;;;3.30;99.90;;;;;;5037064;28;20042;-83
2022/03/09 02:05:35;;;;;;;24.02;14.50;;;3.30;99.90;;;;;;5040574;28;20018;-83
2022/03/09 02:10:46;;;;;;;22.20;14.35;;;3.20;99.90;;;;;;5037963;28;20125;-82
2022/03/09 02:13:12;;;;;;;23.38;14.77;;;3.20;99.90;;;;;;5033721;28;20040;-82
2022/03/09 02:15:38;;;;;;;23.17;13.55;;;3.10;99.90;;;;;;5039725;28;20072;-82
2022/03/09 02:18:04;;;;;;;22.98;13.65;;;3.10;99.90;;;;;;5044882;28;20474;-81
2022/03/09 02:20:30;;;;;;;23.88;14.20;;;3.20;99.90;;;;;;5048294;28;20107;-79
2022/03/09 02:22:56;;;;;;;25.50;14.55;;;3.20;99.90;;;;;;5033285;28;20566;-81
2022/03/09 02:25:22;;;;;;;21.70;12.90;;;3.00;99.90;;;;;;5041250;28;20032;-82
2022/03/09 02:27:47;;;;;;;24.35;15.50;;;3.00;99.90;;;;;;5044727;28;20420;-82
2022/03/09 02:30:16;;;;;;;23.05;14.55;;;3.00;99.90;;;;;;5032550;28;20041;-82
2022/03/09 02:32:51;;;;;;;27.30;14.10;;;2.90;99.90;;;;;;5032783;28;20052;-82
2022/03/09 02:35:18;;;;;;;23.25;14.13;;;3.10;99.90;;;;;;5028587;28;20030;-82
2022/03/09 02:37:44;;;;;;;24.77;13.75;;;3.10;99.90;;;;;;5039087;28;20112;-82
2022/03/09 02:40:12;;;;;;;23.17;14.50;;;3.00;99.90;;;;;;5044192;28;20059;-82
2022/03/09 02:42:39;;;;;;;22.27;13.55;;;2.90;99.90;;;;;;5028744;28;20075;-83
2022/03/09 02:45:05;;;;;;;24.70;15.18;;;2.90;99.90;;;;;;5045805;28;20465;-83
2022/03/09 02:47:31;;;;;;;22.25;14.30;;;2.80;99.90;;;;;;5038986;28;20033;-82
2022/03/09 02:49:57;;;;;;;23.25;13.63;;;2.90;99.90;;;;;;5044760;28;20032;-83
2022/03/09 02:52:22;;;;;;;24.73;14.32;;;2.90;99.90;;;;;;5043928;28;20032;-82
2022/03/09 02:54:48;;;;;;;23.52;14.30;;;2.90;99.90;;;;;;5030638;28;20053;-83
2022/03/09 02:57:14;;;;;;;20.95;13.38;;;2.80;99.90;;;;;;5035085;28;20079;-83
2022/03/09 02:59:40;;;;;;;22.38;13.43;;;2.80;99.90;;;;;;5044783;28;20074;-84
2022/03/09 03:02:06;;;;;;;22.63;13.80;;;2.80;99.90;;;;;;5048891;28;20029;-82
2022/03/09 03:04:31;;;;;;;20.73;13.40;;;2.80;99.90;;;;;;5043225;28;20110;-82
2022/03/09 03:06:57;;;;;;;20.77;12.38;;;2.70;99.90;;;;;;5051482;28;20037;-82
2022/03/09 03:09:23;;;;;;;21.05;13.38;;;2.70;99.90;;;;;;5040560;28;20029;-82
2022/03/09 03:11:48;;;;;;;21.73;13.73;;;2.70;99.90;;;;;;5042410;28;20029;-82
2022/03/09 03:14:14;;;;;;;24.90;13.68;;;2.60;99.90;;;;;;5039625;28;20036;-82
2022/03/09 03:16:40;;;;;;;20.42;13.02;;;2.60;99.90;;;;;;5040607;28;20021;-82
2022/03/09 03:19:05;;;;;;;22.23;13.50;;;2.60;99.90;;;;;;5041732;28;20073;-82
2022/03/09 03:21:31;;;;;;;21.10;12.63;;;2.60;99.90;;;;;;5046236;28;20049;-82
2022/03/09 03:23:58;;;;;;;23.60;15.57;;;2.60;99.90;;;;;;5040338;28;20450;-82
2022/03/09 03:26:24;;;;;;;26.83;14.52;;;2.60;99.90;;;;;;5042240;28;20044;-85
2022/03/09 03:28:53;;;;;;;20.08;13.73;;;2.70;99.90;;;;;;5036444;28;20088;-82
2022/03/09 03:31:20;;;;;;;21.23;13.25;;;2.60;99.90;;;;;;5030391;28;20041;-82
2022/03/09 03:33:47;;;;;;;29.42;15.13;;;2.60;99.90;;;;;;5042204;28;20112;-82
2022/03/09 03:36:16;;;;;;;23.42;13.45;;;2.60;99.90;;;;;;5027083;28;20021;-82
2022/03/09 03:38:43;;;;;;;23.33;13.40;;;2.50;99.90;;;;;;5040734;28;20470;-83
2022/03/09 03:41:08;;;;;;;23.50;13.73;;;2.30;99.90;;;;;;5043764;28;20187;-83
2022/03/09 03:43:34;;;;;;;20.42;12.77;;;2.40;99.90;;;;;;5045635;28;20099;-82
2022/03/09 03:46:00;;;;;;;22.45;14.43;;;2.30;99.90;;;;;;5033461;28;20112;-82
2022/03/09 03:48:25;;;;;;;20.50;12.52;;;2.20;99.90;;;;;;5034175;28;20032;-84
2022/03/09 03:50:51;;;;;;;22.63;12.73;;;2.20;99.90;;;;;;5046675;28;20069;-82
2022/03/09 03:53:17;;;;;;;20.58;12.63;;;2.20;99.90;;;;;;5025340;28;20026;-83
2022/03/09 03:55:44;;;;;;;26.63;14.30;;;2.20;99.90;;;;;;5041889;28;20036;-83
2022/03/09 03:58:10;;;;;;;20.67;12.55;;;2.30;99.90;;;;;;5028983;28;20491;-83
2022/03/09 04:00:36;;;;;;;22.08;12.55;;;2.20;99.90;;;;;;5025574;28;20040;-82
2022/03/09 04:03:02;;;;;;;24.48;13.70;;;2.20;99.90;;;;;;5044578;28;20025;-82
2022/03/09 04:05:28;;;;;;;22.58;12.82;;;2.30;99.90;;;;;;5027926;28;20026;-81
2022/03/09 04:07:54;;;;;;;22.05;13.13;;;2.20;99.90;;;;;;5033873;28;20033;-82
2022/03/09 04:10:19;;;;;;;20.63;12.18;;;2.30;99.90;;;;;;5041212;28;20040;-81
2022/03/09 04:12:45;;;;;;;19.65;12.20;;;2.30;99.90;;;;;;5046278;28;20119;-82
2022/03/09 04:15:11;;;;;;;24.35;13.57;;;2.40;99.90;;;;;;5042702;28;20037;-81
2022/03/09 04:17:40;;;;;;;22.33;12.20;;;2.40;99.90;;;;;;5041668;28;20540;-81
2022/03/09 04:20:07;;;;;;;27.05;12.90;;;2.40;99.90;;;;;;5025818;28;20060;-81
2022/03/09 04:22:32;;;;;;;25.63;13.27;;;2.30;99.90;;;;;;5034216;28;20025;-82
2022/03/09 04:24:58;;;;;;;23.38;11.77;;;2.30;99.90;;;;;;5032632;28;20033;-82
2022/03/09 04:27:23;;;;;;;24.77;13.75;;;2.30;99.90;;;;;;5042451;28;20042;-81
2022/03/09 04:29:49;;;;;;;23.63;13.27;;;2.30;99.90;;;;;;5037348;28;20037;-82
2022/03/09 04:32:14;;;;;;;23.52;13.00;;;2.30;99.90;;;;;;5045983;28;20081;-81
2022/03/09 04:34:40;;;;;;;22.63;12.77;;;2.30;99.90;;;;;;5032816;28;20040;-81
2022/03/09 04:37:06;;;;;;;20.77;13.65;;;2.30;99.90;;;;;;5026038;28;20033;-79
2022/03/09 04:39:31;;;;;;;19.83;11.40;;;2.20;99.90;;;;;;5036559;28;20394;-81
2022/03/09 04:41:57;;;;;;;23.77;12.80;;;2.20;99.90;;;;;;5033341;28;20033;-82
2022/03/09 04:44:22;;;;;;;20.48;12.77;;;2.20;99.90;;;;;;5044795;28;20033;-81
2022/03/09 04:46:48;;;;;;;23.27;13.85;;;2.10;99.90;;;;;;5030012;28;20405;-81
2022/03/09 04:49:14;;;;;;;26.63;14.68;;;2.10;99.90;;;;;;5033976;28;20041;-81
2022/03/09 04:51:39;;;;;;;23.60;13.15;;;2.10;99.90;;;;;;5038116;28;20035;-81
2022/03/09 04:54:05;;;;;;;22.50;14.10;;;2.10;99.90;;;;;;5024066;28;20528;-81
2022/03/09 04:56:30;;;;;;;24.27;13.73;;;2.10;99.90;;;;;;5038599;28;20032;-81
2022/03/09 04:58:56;;;;;;;23.02;14.15;;;2.10;99.90;;;;;;5041324;28;20034;-81
2022/03/09 05:01:22;;;;;;;17.73;12.40;;;2.10;99.90;;;;;;5032700;28;20115;-81
2022/03/09 05:03:47;;;;;;;23.08;13.23;;;2.10;99.90;;;;;;5037367;28;20022;-81
2022/03/09 05:06:14;;;;;;;18.85;12.20;;;2.00;99.90;;;;;;5044662;28;20029;-80
2022/03/09 05:08:40;;;;;;;22.48;13.65;;;2.00;99.90;;;;;;5040213;28;20108;-81
2022/03/09 05:11:06;;;;;;;23.90;13.63;;;2.00;99.90;;;;;;5032530;28;20124;-80
2022/03/09 05:13:31;;;;;;;22.23;14.00;;;2.00;99.90;;;;;;5025935;28;20389;-81
2022/03/09 05:15:57;;;;;;;23.05;12.93;;;1.90;99.90;;;;;;5037952;28;20030;-81
2022/03/09 05:18:23;;;;;;;22.35;13.60;;;1.90;99.90;;;;;;5039933;28;20025;-80
2022/03/09 05:20:48;;;;;;;24.60;13.77;;;1.90;99.90;;;;;;5036686;28;20029;-81
2022/03/09 05:23:14;;;;;;;24.25;13.23;;;1.90;99.90;;;;;;5036924;28;20466;-82
2022/03/09 05:25:40;;;;;;;23.70;13.30;;;1.90;99.90;;;;;;5029930;28;20025;-81
2022/03/09 05:28:05;;;;;;;23.73;13.25;;;1.90;99.90;;;;;;5043452;28;20086;-81
2022/03/09 05:30:31;;;;;;;21.55;12.18;;;1.90;99.90;;;;;;5036907;28;20137;-81
2022/03/09 05:32:57;;;;;;;21.30;12.43;;;1.70;99.90;;;;;;5036474;28;20083;-82
2022/03/09 05:35:23;;;;;;;19.75;12.07;;;1.70;99.90;;;;;;5036221;28;20108;-81
2022/03/09 05:37:48;;;;;;;29.25;12.55;;;1.70;99.90;;;;;;5039089;28;20104;-81
2022/03/09 05:40:15;;;;;;;19.95;11.90;;;1.70;99.90;;;;;;5028742;28;20044;-81
2022/03/09 05:42:43;;;;;;;22.23;11.95;;;1.60;99.90;;;;;;5034670;28;20060;-81
2022/03/09 05:45:09;;;;;;;21.90;12.43;;;1.60;99.90;;;;;;5041887;28;20078;-83
2022/03/09 05:47:35;;;;;;;21.23;12.65;;;1.60;99.90;;;;;;5032365;28;20095;-81
2022/03/09 05:50:00;;;;;;;22.13;12.65;;;1.50;99.90;;;;;;5028531;28;20041;-81
2022/03/09 05:52:26;;;;;;;23.25;13.02;;;1.60;99.90;;;;;;5040134;28;20021;-80
2022/03/09 05:54:52;;;;;;;24.10;13.35;;;1.50;99.90;;;;;;5033492;28;20043;-81
2022/03/09 05:57:19;;;;;;;21.55;13.02;;;1.50;99.90;;;;;;5037170;28;20128;-81
2022/03/09 05:59:45;;;;;;;23.00;12.95;;;1.50;99.90;;;;;;5023736;28;20435;-81
2022/03/09 06:02:11;;;;;;;24.48;13.95;;;1.50;99.90;;;;;;5036480;28;20068;-83
2022/03/09 06:04:36;;;;;;;24.25;13.98;;;1.60;99.90;;;;;;5039535;28;20029;-82
2022/03/09 06:07:03;;;;;;;23.55;13.90;;;1.50;99.90;;;;;;5038704;28;20103;-81
2022/03/09 06:09:29;;;;;;;22.85;14.07;;;1.60;99.90;;;;;;5036396;28;20041;-81
2022/03/09 06:11:55;;;;;;;24.48;13.68;;;1.60;99.90;;;;;;5040301;28;20382;-82
2022/03/09 06:14:20;;;;;;;24.17;12.57;;;1.70;99.90;;;;;;5037526;28;20030;-82
2022/03/09 06:16:47;;;;;;;21.80;12.90;;;1.70;99.90;;;;;;5038095;28;20073;-84
2022/03/09 06:19:17;;;;;;;22.20;12.07;;;1.60;99.90;;;;;;5035291;28;20040;-84
2022/03/09 06:21:43;;;;;;;23.38;12.55;;;1.50;99.90;;;;;;5030383;28;20101;-82
2022/03/09 06:24:10;;;;;;;22.98;13.57;;;1.50;99.90;;;;;;5032334;28;20029;-83
2022/03/09 06:26:37;;;;;;;22.00;12.77;;;1.50;99.90;;;;;;5037246;28;20026;-82
2022/03/09 06:29:04;;;;;;;20.45;12.07;;;1.50;99.90;;;;;;5037608;28;20044;-83
2022/03/09 06:31:30;;;;;;;26.25;14.07;;;1.40;99.90;;;;;;5030673;28;20030;-82
2022/03/09 06:33:56;;;;;;;23.65;13.77;;;1.50;99.90;;;;;;5045397;28;20033;-81
2022/03/09 06:36:21;;;;;;;26.58;14.70;;;1.50;99.90;;;;;;5043966;28;20025;-84
2022/03/09 06:38:47;;;;;;;22.90;12.32;;;1.60;99.90;;;;;;5043758;28;20461;-84
2022/03/09 06:41:13;;;;;;;25.50;13.60;;;1.60;99.90;;;;;;5038529;28;20025;-82
2022/03/09 06:43:38;;;;;;;58.90;30.48;;;1.50;99.90;;;;;;5039717;28;20032;-83
2022/03/09 06:46:04;;;;;;;43.00;24.33;;;1.50;99.90;;;;;;5047664;28;20021;-82
2022/03/09 06:48:30;;;;;;;28.40;15.13;;;1.60;99.90;;;;;;5050000;28;20087;-83
2022/03/09 06:50:56;;;;;;;24.05;13.52;;;1.60;99.90;;;;;;5029119;28;20056;-82
2022/03/09 06:53:22;;;;;;;21.40;12.30;;;1.70;99.90;;;;;;5041963;28;20048;-84
2022/03/09 06:55:47;;;;;;;23.20;13.38;;;1.60;99.90;;;;;;5037293;28;20096;-83
2022/03/09 06:58:13;;;;;;;21.73;12.48;;;1.60;99.90;;;;;;5027789;28;20041;-83
2022/03/09 07:00:39;;;;;;;22.15;13.35;;;1.70;99.90;;;;;;5040155;28;20044;-82
2022/03/09 07:03:05;;;;;;;23.33;13.90;;;1.70;99.90;;;;;;5034674;28;20018;-84
2022/03/09 07:05:35;;;;;;;26.25;12.82;;;1.70;99.90;;;;;;5040718;28;20221;-82
2022/03/09 07:08:01;;;;;;;26.60;13.07;;;1.70;99.90;;;;;;5032075;28;20034;-81
2022/03/09 07:10:27;;;;;;;23.10;13.18;;;1.80;99.90;;;;;;5033697;28;20032;-79
2022/03/09 07:12:53;;;;;;;25.38;12.35;;;1.80;99.90;;;;;;5036164;28;20055;-82
2022/03/09 07:15:19;;;;;;;22.63;12.25;;;1.70;99.90;;;;;;5040838;28;20017;-83
2022/03/09 07:17:46;;;;;;;26.52;13.25;;;1.80;99.90;;;;;;5028253;28;20477;-83
2022/03/09 07:20:12;;;;;;;19.27;11.65;;;1.90;99.90;;;;;;5037785;28;20045;-83
2022/03/09 07:22:40;;;;;;;28.02;12.52;;;1.90;99.90;;;;;;5029443;28;20355;-83
2022/03/09 07:25:06;;;;;;;27.05;13.65;;;2.00;99.90;;;;;;5035029;28;20027;-84
2022/03/09 07:27:33;;;;;;;30.05;16.90;;;2.10;99.90;;;;;;5036298;28;20114;-84
2022/03/09 07:30:00;;;;;;;28.17;14.18;;;2.10;99.90;;;;;;5044412;28;20040;-84
2022/03/09 07:32:25;;;;;;;27.40;13.93;;;2.30;99.90;;;;;;5041599;28;20033;-84
2022/03/09 07:34:51;;;;;;;23.45;13.85;;;2.30;99.90;;;;;;5042040;28;20454;-84
2022/03/09 07:37:16;;;;;;;23.40;12.90;;;2.30;99.90;;;;;;5036100;28;20032;-85
2022/03/09 07:39:42;;;;;;;26.00;13.43;;;2.40;99.90;;;;;;5040578;28;20090;-85
2022/03/09 07:42:08;;;;;;;23.60;12.63;;;2.40;99.90;;;;;;5041617;28;20472;-85
2022/03/09 07:44:34;;;;;;;27.15;12.95;;;2.40;99.90;;;;;;5031530;28;20117;-87
2022/03/09 07:46:59;;;;;;;22.83;12.05;;;2.50;99.90;;;;;;5045511;28;20035;-86
2022/03/09 07:49:25;;;;;;;22.73;13.10;;;2.50;99.90;;;;;;5048672;28;20029;-89
2022/03/09 07:51:51;;;;;;;22.88;13.07;;;2.50;99.90;;;;;;5040480;28;20040;-85
2022/03/09 07:54:17;;;;;;;23.13;12.57;;;2.60;99.90;;;;;;5030207;28;20037;-77
2022/03/09 07:56:44;;;;;;;21.13;12.52;;;2.70;99.90;;;;;;5024362;28;20038;-81
2022/03/09 07:59:11;;;;;;;21.77;12.40;;;2.80;99.90;;;;;;5039311;28;20048;-81
2022/03/09 08:01:37;;;;;;;22.60;12.27;;;2.90;99.90;;;;;;5038495;28;20115;-77
2022/03/09 08:04:03;;;;;;;22.00;11.85;;;3.10;99.90;;;;;;5035889;28;20021;-82
2022/03/09 08:06:29;;;;;;;20.13;11.65;;;3.20;99.90;;;;;;5034286;28;20032;-89
2022/03/09 08:08:55;;;;;;;20.70;12.02;;;3.30;99.90;;;;;;5049506;28;20028;-85
2022/03/09 08:11:22;;;;;;;25.23;12.48;;;3.40;99.90;;;;;;5032229;28;20112;-85
2022/03/09 08:13:49;;;;;;;19.77;12.05;;;3.60;99.90;;;;;;5049935;28;20030;-89
2022/03/09 08:16:15;;;;;;;19.33;11.75;;;3.80;99.90;;;;;;5046377;28;20032;-91
2022/03/09 08:18:41;;;;;;;20.38;12.52;;;4.00;99.90;;;;;;5029777;28;20025;-87
2022/03/09 08:21:07;;;;;;;19.52;10.65;;;4.10;99.90;;;;;;5050221;28;20021;-87
2022/03/09 08:23:33;;;;;;;22.30;10.48;;;4.30;99.90;;;;;;5045658;28;20051;-88
2022/03/09 08:25:58;;;;;;;18.60;10.68;;;4.50;99.90;;;;;;5049818;28;20475;-88
2022/03/09 08:28:24;;;;;;;17.38;10.60;;;4.60;99.90;;;;;;5054226;28;20017;-89
2022/03/09 08:30:52;;;;;;;24.55;13.23;;;4.70;99.90;;;;;;5054358;28;20044;-88
2022/03/09 08:33:17;;;;;;;17.83;10.77;;;4.80;99.90;;;;;;5039866;28;20025;-90
2022/03/09 08:35:43;;;;;;;20.48;11.65;;;4.90;99.90;;;;;;5044814;28;20030;-91
2022/03/09 08:38:09;;;;;;;22.58;11.25;;;5.10;99.90;;;;;;5035449;28;20037;-90
2022/03/09 08:40:35;;;;;;;19.00;11.23;;;5.20;99.90;;;;;;5031346;28;20474;-90
2022/03/09 08:43:01;;;;;;;27.50;13.02;;;5.20;99.90;;;;;;5037445;28;20032;-89
2022/03/09 08:45:27;;;;;;;23.67;12.10;;;5.40;99.40;;;;;;5044181;28;20036;-88
2022/03/09 08:47:52;;;;;;;20.50;11.75;;;5.60;99.90;;;;;;5034784;28;20440;-89
2022/03/09 08:50:19;;;;;;;20.90;10.90;;;5.70;99.90;;;;;;5036698;28;20032;-89
2022/03/09 08:52:45;;;;;;;16.98;10.90;;;5.80;99.90;;;;;;5049562;28;20025;-89
2022/03/09 08:55:10;;;;;;;24.73;11.85;;;6.00;99.90;;;;;;5050166;28;20025;-89
2022/03/09 08:57:36;;;;;;;20.45;11.48;;;6.20;99.40;;;;;;5041656;28;20025;-88
2022/03/09 09:00:04;;;;;;;22.15;10.77;;;6.20;99.00;;;;;;5027571;28;20037;-90
2022/03/09 09:02:30;;;;;;;19.60;11.65;;;6.30;99.50;;;;;;5034887;28;20026;-89
2022/03/09 09:04:57;;;;;;;19.55;11.85;;;6.50;99.60;;;;;;5041688;28;20040;-88
2022/03/09 09:07:23;;;;;;;23.35;12.02;;;6.60;98.60;;;;;;5041593;28;20488;-90
2022/03/09 09:09:49;;;;;;;22.92;13.05;;;6.70;98.90;;;;;;5028645;28;20018;-88
2022/03/09 09:12:15;;;;;;;27.60;13.15;;;6.80;98.40;;;;;;5038120;28;20468;-89
2022/03/09 09:14:40;;;;;;;19.17;12.25;;;7.00;98.50;;;;;;5033044;28;20025;-89
2022/03/09 09:17:07;;;;;;;23.92;11.50;;;7.10;97.90;;;;;;5037034;28;20021;-90
2022/03/09 09:19:33;;;;;;;21.95;13.10;;;7.20;97.90;;;;;;5038977;28;20042;-88
2022/03/09 09:21:59;;;;;;;22.05;12.73;;;7.30;98.40;;;;;;5045926;28;20028;-90
2022/03/09 09:24:25;;;;;;;22.60;12.65;;;7.50;98.70;;;;;;5027338;28;20034;-92
2022/03/09 09:26:50;;;;;;;24.63;12.88;;;7.60;97.60;;;;;;5059551;28;20037;-91
2022/03/09 09:29:18;;;;;;;20.92;13.00;;;7.70;96.90;;;;;;5049001;28;20511;-90
2022/03/09 09:31:44;;;;;;;22.80;13.25;;;7.80;96.90;;;;;;5036725;28;20113;-91
2022/03/09 09:34:09;;;;;;;21.25;12.60;;;7.90;96.30;;;;;;5036704;28;20064;-91
2022/03/09 09:36:36;;;;;;;20.67;12.13;;;8.00;95.50;;;;;;5040280;28;20111;-91
2022/03/09 09:39:02;;;;;;;23.08;13.95;;;8.20;96.60;;;;;;5049192;28;20544;-92
2022/03/09 09:41:33;;;;;;;23.02;13.52;;;8.30;96.60;;;;;;5046076;28;20025;-93
2022/03/09 09:43:59;;;;;;;19.60;11.68;;;8.50;96.10;;;;;;5031879;28;20048;-93
2022/03/09 09:46:24;;;;;;;23.95;13.38;;;8.60;96.30;;;;;;5029743;28;20021;-93
2022/03/09 09:49:03;;;;;;;23.92;14.55;;;8.70;95.50;;;;;;5047946;28;20017;-93
2022/03/09 09:51:29;;;;;;;20.48;13.90;;;8.90;96.70;;;;;;5037351;28;20098;-91
2022/03/09 09:53:55;;;;;;;25.00;14.27;;;9.10;95.50;;;;;;5044065;28;20025;-91
2022/03/09 09:56:22;;;;;;;25.95;13.23;;;9.30;95.80;;;;;;5035579;28;20026;-88
2022/03/09 09:58:49;;;;;;;23.50;12.85;;;9.30;94.60;;;;;;5033619;28;20128;-90
2022/03/09 10:01:14;;;;;;;22.58;13.93;;;9.40;95.10;;;;;;5036892;28;20021;-89
2022/03/09 10:03:40;;;;;;;24.08;12.38;;;9.50;94.20;;;;;;5033108;28;20105;-87
2022/03/09 10:06:06;;;;;;;25.10;12.88;;;9.60;93.50;;;;;;5036487;28;20028;-85
2022/03/09 10:08:31;;;;;;;28.23;13.77;;;9.60;94.20;;;;;;5034103;28;20038;-86
2022/03/09 10:11:02;;;;;;;21.65;13.18;;;9.80;94.70;;;;;;5021927;28;20022;-85
2022/03/09 10:13:38;;;;;;;24.15;13.55;;;10.00;93.50;;;;;;5036196;28;20030;-85
2022/03/09 10:16:13;;;;;;;24.35;13.88;;;10.10;94.10;;;;;;5044324;28;20052;-82
2022/03/09 10:18:45;;;;;;;24.38;13.50;;;10.30;94.70;;;;;;5039674;28;20033;-83
2022/03/09 10:21:13;;;;;;;23.88;14.23;;;10.30;93.90;;;;;;5038027;28;20034;-84
2022/03/09 10:23:57;;;;;;;29.98;15.45;;;10.40;92.50;;;;;;5033970;28;20473;-85
2022/03/09 10:26:24;;;;;;;24.80;13.70;;;10.60;93.80;;;;;;5039902;28;20030;-84
2022/03/09 10:29:02;;;;;;;26.50;13.52;;;10.70;92.80;;;;;;5045182;28;20082;-83
2022/03/09 10:31:41;;;;;;;25.10;14.50;;;10.80;93.60;;;;;;5031332;28;20470;-86
2022/03/09 10:34:25;;;;;;;28.15;16.35;;;10.90;94.00;;;;;;5024330;28;20561;-86
2022/03/09 10:36:54;;;;;;;24.33;13.77;;;11.00;92.80;;;;;;5052583;28;20440;-86
2022/03/09 10:39:22;;;;;;;23.83;14.57;;;11.10;92.40;;;;;;5038494;28;20040;-89
2022/03/09 10:41:49;;;;;;;25.65;14.77;;;11.30;94.10;;;;;;5028598;28;20390;-87
2022/03/09 10:44:14;;;;;;;25.88;13.80;;;11.20;92.60;;;;;;5035391;28;20455;-84
2022/03/09 10:46:50;;;;;;;22.80;13.80;;;11.40;93.10;;;;;;5032770;28;20029;-84
2022/03/09 10:49:23;;;;;;;25.80;15.88;;;11.40;92.20;;;;;;5048891;28;20172;-82
2022/03/09 10:51:52;;;;;;;30.15;15.02;;;11.60;92.80;;;;;;5040707;28;20498;-89
2022/03/09 10:54:34;;;;;;;28.58;14.57;;;11.70;92.90;;;;;;5036735;28;20381;-85
2022/03/09 10:57:10;;;;;;;25.25;15.30;;;11.90;92.50;;;;;;5034007;28;20466;-85
2022/03/09 10:59:48;;;;;;;24.90;14.02;;;11.90;92.60;;;;;;5026784;28;20128;-85
2022/03/09 11:02:16;;;;;;;28.95;15.27;;;11.80;92.60;;;;;;5042314;28;20025;-85
2022/03/09 11:04:42;;;;;;;25.38;15.25;;;12.00;92.70;;;;;;5048312;28;20048;-86
2022/03/09 11:07:12;;;;;;;26.00;14.90;;;12.10;92.30;;;;;;5037482;28;20068;-86
2022/03/09 11:09:37;;;;;;;27.83;14.63;;;12.20;92.00;;;;;;5034256;28;20029;-82
2022/03/09 11:12:04;;;;;;;30.13;16.00;;;12.30;92.90;;;;;;5040350;28;20534;-83
2022/03/09 11:14:30;;;;;;;24.70;15.95;;;12.30;91.50;;;;;;5036453;28;20025;-86
2022/03/09 11:16:57;;;;;;;22.95;14.88;;;12.40;93.30;;;;;;5034214;28;20377;-87
2022/03/09 11:19:24;;;;;;;28.52;15.38;;;12.50;91.70;;;;;;5031426;28;20084;-85
2022/03/09 11:21:50;;;;;;;31.15;17.15;;;12.50;92.50;;;;;;5034763;28;20029;-86
2022/03/09 11:24:19;;;;;;;27.10;15.45;;;12.60;91.30;;;;;;5035411;28;20087;-87
2022/03/09 11:26:51;;;;;;;29.52;16.33;;;12.60;90.80;;;;;;5036157;28;20022;-85
2022/03/09 11:29:40;;;;;;;31.53;17.40;;;12.70;91.30;;;;;;5036769;28;20036;-87
2022/03/09 11:32:14;;;;;;;26.52;16.20;;;12.70;90.80;;;;;;5031647;28;20021;-88
2022/03/09 11:34:45;;;;;;;28.13;16.17;;;12.80;91.50;;;;;;5038700;28;20072;-86
2022/03/09 11:37:12;;;;;;;29.67;16.95;;;12.80;91.00;;;;;;5046674;28;20026;-87
2022/03/09 11:39:43;;;;;;;27.80;16.40;;;12.80;90.70;;;;;;5035287;28;20053;-89
2022/03/09 11:42:22;;;;;;;32.00;15.88;;;13.00;92.20;;;;;;5033755;28;20021;-89
2022/03/09 11:44:49;;;;;;;29.55;17.83;;;13.10;90.90;;;;;;5037202;28;20079;-89
2022/03/09 11:47:16;;;;;;;34.40;19.58;;;13.20;90.80;;;;;;5037575;28;20025;-86
2022/03/09 11:49:42;;;;;;;30.27;16.20;;;13.20;89.00;;;;;;5032573;28;20120;-83
2022/03/09 11:52:12;;;;;;;31.75;18.98;;;13.20;91.40;;;;;;5029457;28;20105;-84
2022/03/09 11:54:48;;;;;;;32.45;18.95;;;13.30;90.20;;;;;;5034543;28;20145;-83
2022/03/09 11:57:16;;;;;;;32.38;18.15;;;13.60;92.00;;;;;;5032566;28;20037;-87
2022/03/09 12:00:08;;;;;;;36.65;20.33;;;13.60;91.20;;;;;;5037840;28;20072;-81
2022/03/09 12:02:42;;;;;;;35.45;18.05;;;13.50;89.00;;;;;;5031029;28;20044;-83
2022/03/09 12:05:40;;;;;;;43.28;20.70;;;13.50;90.50;;;;;;5044890;28;20813;-84
2022/03/09 12:08:10;;;;;;;34.35;19.05;;;13.70;90.60;;;;;;5034048;28;20041;-83
2022/03/09 12:10:42;;;;;;;39.53;20.02;;;13.70;90.50;;;;;;5035015;28;20375;-87
2022/03/09 12:13:15;;;;;;;36.15;21.23;;;13.80;89.10;;;;;;5042393;28;20091;-86
2022/03/09 12:16:14;;;;;;;34.38;19.83;;;13.90;90.80;;;;;;5041202;28;20029;-87
2022/03/09 12:19:00;;;;;;;33.55;19.63;;;13.90;90.90;;;;;;5050223;28;20036;-86
2022/03/09 12:21:26;;;;;;;30.58;19.70;;;14.00;91.80;;;;;;5034389;28;20112;-84
2022/03/09 12:24:13;;;;;;;39.50;23.15;;;14.30;92.40;;;;;;5042772;28;20434;-83
2022/03/09 12:26:46;;;;;;;40.45;22.77;;;14.10;90.90;;;;;;5039913;28;20029;-85
2022/03/09 12:29:18;;;;;;;34.35;20.85;;;14.30;89.90;;;;;;5038615;28;20048;-84
2022/03/09 12:31:44;;;;;;;36.55;20.95;;;14.20;89.20;;;;;;5037622;28;20033;-83
2022/03/09 12:34:10;;;;;;;42.03;22.05;;;14.10;90.30;;;;;;5041473;28;20120;-85
2022/03/09 12:36:37;;;;;;;39.35;22.38;;;14.20;91.10;;;;;;5038397;28;20057;-86
2022/03/09 12:39:05;;;;;;;40.60;22.15;;;14.30;89.80;;;;;;5025892;28;20044;-87